sensor_id;sensor_type;location;lat;lon;timestamp;P1;durP1;ratioP1;P2;durP2;ratioP2
7017;SDS011;3549;42.162;24.726;2023-11-19T00:02:06;3.83;;;2.30;;
7017;SDS011;3549;42.162;24.726;2023-11-19T00:04:33;2.93;;;2.40;;
7017;SDS011;3549;42.162;24.726;2023-11-19T00:07:01;4.07;;;2.70;;
7017;SDS011;3549;42.162;24.726;2023-11-19T00:09:29;3.33;;;2.50;;
7017;SDS011;3549;42.162;24.726;2023-11-19T00:11:55;3.23;;;2.30;;
7017;SDS011;3549;42.162;24.726;2023-11-19T00:14:20;2.80;;;2.33;;
7017;SDS011;3549;42.162;24.726;2023-11-19T00:16:46;3.50;;;2.70;;
7017;SDS011;3549;42.162;24.726;2023-11-19T00:19:11;3.23;;;2.47;;
7017;SDS011;3549;42.162;24.726;2023-11-19T00:21:37;4.73;;;2.50;;
7017;SDS011;3549;42.162;24.726;2023-11-19T00:24:02;4.23;;;2.20;;
7017;SDS011;3549;42.162;24.726;2023-11-19T00:26:29;3.53;;;2.33;;
7017;SDS011;3549;42.162;24.726;2023-11-19T00:28:54;3.70;;;2.50;;
7017;SDS011;3549;42.162;24.726;2023-11-19T00:31:21;2.50;;;2.17;;
7017;SDS011;3549;42.162;24.726;2023-11-19T00:33:46;3.27;;;2.10;;
7017;SDS011;3549;42.162;24.726;2023-11-19T00:36:12;2.70;;;2.13;;
7017;SDS011;3549;42.162;24.726;2023-11-19T00:38:38;2.60;;;2.30;;
7017;SDS011;3549;42.162;24.726;2023-11-19T00:41:03;3.27;;;2.30;;
7017;SDS011;3549;42.162;24.726;2023-11-19T00:43:29;2.40;;;2.20;;
7017;SDS011;3549;42.162;24.726;2023-11-19T00:45:54;2.80;;;2.20;;
7017;SDS011;3549;42.162;24.726;2023-11-19T00:48:20;2.87;;;2.10;;
7017;SDS011;3549;42.162;24.726;2023-11-19T00:50:45;2.80;;;2.20;;
7017;SDS011;3549;42.162;24.726;2023-11-19T00:53:11;3.23;;;2.60;;
7017;SDS011;3549;42.162;24.726;2023-11-19T00:55:37;3.43;;;2.50;;
7017;SDS011;3549;42.162;24.726;2023-11-19T00:58:02;3.40;;;2.10;;
7017;SDS011;3549;42.162;24.726;2023-11-19T01:00:28;3.83;;;2.40;;
7017;SDS011;3549;42.162;24.726;2023-11-19T01:02:53;2.50;;;2.30;;
7017;SDS011;3549;42.162;24.726;2023-11-19T01:05:19;2.77;;;2.57;;
7017;SDS011;3549;42.162;24.726;2023-11-19T01:07:48;2.70;;;2.30;;
7017;SDS011;3549;42.162;24.726;2023-11-19T01:10:15;2.93;;;2.63;;
7017;SDS011;3549;42.162;24.726;2023-11-19T01:12:43;2.70;;;2.00;;
7017;SDS011;3549;42.162;24.726;2023-11-19T01:15:09;3.60;;;2.63;;
7017;SDS011;3549;42.162;24.726;2023-11-19T01:17:36;3.43;;;2.50;;
7017;SDS011;3549;42.162;24.726;2023-11-19T01:20:02;2.93;;;2.27;;
7017;SDS011;3549;42.162;24.726;2023-11-19T01:22:31;2.57;;;2.23;;
7017;SDS011;3549;42.162;24.726;2023-11-19T01:24:56;2.93;;;2.43;;
7017;SDS011;3549;42.162;24.726;2023-11-19T01:27:23;3.23;;;2.50;;
7017;SDS011;3549;42.162;24.726;2023-11-19T01:29:49;3.83;;;2.20;;
7017;SDS011;3549;42.162;24.726;2023-11-19T01:32:14;3.87;;;2.77;;
7017;SDS011;3549;42.162;24.726;2023-11-19T01:34:40;3.23;;;2.50;;
7017;SDS011;3549;42.162;24.726;2023-11-19T01:37:06;2.67;;;2.30;;
7017;SDS011;3549;42.162;24.726;2023-11-19T01:39:31;2.67;;;2.40;;
7017;SDS011;3549;42.162;24.726;2023-11-19T01:41:57;3.67;;;2.50;;
7017;SDS011;3549;42.162;24.726;2023-11-19T01:44:22;3.03;;;2.30;;
7017;SDS011;3549;42.162;24.726;2023-11-19T01:46:48;2.97;;;2.47;;
7017;SDS011;3549;42.162;24.726;2023-11-19T01:49:14;3.13;;;2.67;;
7017;SDS011;3549;42.162;24.726;2023-11-19T01:51:41;3.47;;;2.80;;
7017;SDS011;3549;42.162;24.726;2023-11-19T01:54:07;2.97;;;2.23;;
7017;SDS011;3549;42.162;24.726;2023-11-19T01:56:33;2.53;;;2.23;;
7017;SDS011;3549;42.162;24.726;2023-11-19T01:58:59;3.20;;;2.63;;
7017;SDS011;3549;42.162;24.726;2023-11-19T02:01:25;3.30;;;2.60;;
7017;SDS011;3549;42.162;24.726;2023-11-19T02:03:52;4.13;;;2.93;;
7017;SDS011;3549;42.162;24.726;2023-11-19T02:06:17;2.87;;;2.57;;
7017;SDS011;3549;42.162;24.726;2023-11-19T02:08:43;3.40;;;2.90;;
7017;SDS011;3549;42.162;24.726;2023-11-19T02:11:08;4.13;;;2.60;;
7017;SDS011;3549;42.162;24.726;2023-11-19T02:13:34;2.90;;;2.30;;
7017;SDS011;3549;42.162;24.726;2023-11-19T02:16:02;3.17;;;2.70;;
7017;SDS011;3549;42.162;24.726;2023-11-19T02:18:29;3.20;;;2.77;;
7017;SDS011;3549;42.162;24.726;2023-11-19T02:20:55;3.00;;;2.67;;
7017;SDS011;3549;42.162;24.726;2023-11-19T02:23:25;3.60;;;2.60;;
7017;SDS011;3549;42.162;24.726;2023-11-19T02:28:47;4.07;;;2.90;;
7017;SDS011;3549;42.162;24.726;2023-11-19T02:31:13;2.90;;;2.60;;
7017;SDS011;3549;42.162;24.726;2023-11-19T02:33:39;4.57;;;3.03;;
7017;SDS011;3549;42.162;24.726;2023-11-19T02:36:05;4.27;;;2.80;;
7017;SDS011;3549;42.162;24.726;2023-11-19T02:38:32;5.10;;;2.80;;
7017;SDS011;3549;42.162;24.726;2023-11-19T02:41:04;3.03;;;2.37;;
7017;SDS011;3549;42.162;24.726;2023-11-19T02:43:34;3.80;;;2.90;;
7017;SDS011;3549;42.162;24.726;2023-11-19T02:46:03;3.80;;;3.00;;
7017;SDS011;3549;42.162;24.726;2023-11-19T02:48:33;2.93;;;2.60;;
7017;SDS011;3549;42.162;24.726;2023-11-19T02:51:00;4.00;;;2.50;;
7017;SDS011;3549;42.162;24.726;2023-11-19T02:53:31;4.03;;;2.90;;
7017;SDS011;3549;42.162;24.726;2023-11-19T02:55:57;3.27;;;2.63;;
7017;SDS011;3549;42.162;24.726;2023-11-19T02:58:31;5.77;;;3.00;;
7017;SDS011;3549;42.162;24.726;2023-11-19T03:00:56;3.13;;;2.53;;
7017;SDS011;3549;42.162;24.726;2023-11-19T03:03:26;3.77;;;2.90;;
7017;SDS011;3549;42.162;24.726;2023-11-19T03:06:04;3.87;;;3.03;;
7017;SDS011;3549;42.162;24.726;2023-11-19T03:08:29;3.00;;;2.70;;
7017;SDS011;3549;42.162;24.726;2023-11-19T03:10:55;4.37;;;3.00;;
7017;SDS011;3549;42.162;24.726;2023-11-19T03:13:20;4.57;;;2.90;;
7017;SDS011;3549;42.162;24.726;2023-11-19T03:15:46;4.67;;;2.90;;
7017;SDS011;3549;42.162;24.726;2023-11-19T03:18:12;3.07;;;2.60;;
7017;SDS011;3549;42.162;24.726;2023-11-19T03:20:38;4.00;;;3.07;;
7017;SDS011;3549;42.162;24.726;2023-11-19T03:23:03;3.53;;;2.90;;
7017;SDS011;3549;42.162;24.726;2023-11-19T03:25:28;4.67;;;3.30;;
7017;SDS011;3549;42.162;24.726;2023-11-19T03:28:01;5.03;;;3.27;;
7017;SDS011;3549;42.162;24.726;2023-11-19T03:30:27;3.43;;;2.80;;
7017;SDS011;3549;42.162;24.726;2023-11-19T03:32:53;4.50;;;3.07;;
7017;SDS011;3549;42.162;24.726;2023-11-19T03:35:19;3.40;;;2.60;;
7017;SDS011;3549;42.162;24.726;2023-11-19T03:37:45;3.20;;;2.70;;
7017;SDS011;3549;42.162;24.726;2023-11-19T03:40:11;5.67;;;3.17;;
7017;SDS011;3549;42.162;24.726;2023-11-19T03:42:37;4.43;;;2.87;;
7017;SDS011;3549;42.162;24.726;2023-11-19T03:45:04;5.13;;;3.83;;
7017;SDS011;3549;42.162;24.726;2023-11-19T03:47:37;4.60;;;3.17;;
7017;SDS011;3549;42.162;24.726;2023-11-19T03:50:03;6.73;;;3.40;;
7017;SDS011;3549;42.162;24.726;2023-11-19T03:52:29;4.80;;;3.27;;
7017;SDS011;3549;42.162;24.726;2023-11-19T03:54:55;3.70;;;2.93;;
7017;SDS011;3549;42.162;24.726;2023-11-19T03:57:22;4.93;;;3.50;;
7017;SDS011;3549;42.162;24.726;2023-11-19T03:59:47;4.70;;;3.33;;
7017;SDS011;3549;42.162;24.726;2023-11-19T04:02:13;4.50;;;3.27;;
7017;SDS011;3549;42.162;24.726;2023-11-19T04:04:38;5.37;;;3.10;;
7017;SDS011;3549;42.162;24.726;2023-11-19T04:07:04;4.80;;;3.30;;
7017;SDS011;3549;42.162;24.726;2023-11-19T04:09:30;4.33;;;3.30;;
7017;SDS011;3549;42.162;24.726;2023-11-19T04:11:58;5.67;;;3.77;;
7017;SDS011;3549;42.162;24.726;2023-11-19T04:14:23;4.57;;;3.33;;
7017;SDS011;3549;42.162;24.726;2023-11-19T04:16:49;5.17;;;3.30;;
7017;SDS011;3549;42.162;24.726;2023-11-19T04:19:14;5.33;;;3.13;;
7017;SDS011;3549;42.162;24.726;2023-11-19T04:21:40;3.73;;;3.10;;
7017;SDS011;3549;42.162;24.726;2023-11-19T04:24:09;4.50;;;3.10;;
7017;SDS011;3549;42.162;24.726;2023-11-19T04:26:43;4.80;;;2.90;;
7017;SDS011;3549;42.162;24.726;2023-11-19T04:29:13;4.57;;;3.53;;
7017;SDS011;3549;42.162;24.726;2023-11-19T04:31:42;3.73;;;3.10;;
7017;SDS011;3549;42.162;24.726;2023-11-19T04:34:09;4.63;;;3.30;;
7017;SDS011;3549;42.162;24.726;2023-11-19T04:36:36;4.60;;;3.20;;
7017;SDS011;3549;42.162;24.726;2023-11-19T04:39:02;3.87;;;3.20;;
7017;SDS011;3549;42.162;24.726;2023-11-19T04:41:34;4.63;;;3.27;;
7017;SDS011;3549;42.162;24.726;2023-11-19T04:43:59;4.67;;;3.20;;
7017;SDS011;3549;42.162;24.726;2023-11-19T04:46:24;5.97;;;3.30;;
7017;SDS011;3549;42.162;24.726;2023-11-19T04:48:50;4.87;;;3.87;;
7017;SDS011;3549;42.162;24.726;2023-11-19T04:51:15;4.13;;;3.30;;
7017;SDS011;3549;42.162;24.726;2023-11-19T04:53:41;4.63;;;3.23;;
7017;SDS011;3549;42.162;24.726;2023-11-19T04:56:07;5.03;;;3.33;;
7017;SDS011;3549;42.162;24.726;2023-11-19T04:58:34;5.93;;;3.53;;
7017;SDS011;3549;42.162;24.726;2023-11-19T05:01:01;4.20;;;3.53;;
7017;SDS011;3549;42.162;24.726;2023-11-19T05:03:26;3.90;;;3.10;;
7017;SDS011;3549;42.162;24.726;2023-11-19T05:05:52;5.00;;;3.67;;
7017;SDS011;3549;42.162;24.726;2023-11-19T05:08:18;4.37;;;3.20;;
7017;SDS011;3549;42.162;24.726;2023-11-19T05:10:43;5.77;;;4.23;;
7017;SDS011;3549;42.162;24.726;2023-11-19T05:13:09;4.90;;;3.20;;
7017;SDS011;3549;42.162;24.726;2023-11-19T05:15:35;4.97;;;3.47;;
7017;SDS011;3549;42.162;24.726;2023-11-19T05:18:00;6.57;;;3.77;;
7017;SDS011;3549;42.162;24.726;2023-11-19T05:20:26;5.43;;;3.93;;
7017;SDS011;3549;42.162;24.726;2023-11-19T05:22:51;5.10;;;3.70;;
7017;SDS011;3549;42.162;24.726;2023-11-19T05:25:18;4.57;;;3.70;;
7017;SDS011;3549;42.162;24.726;2023-11-19T05:27:45;4.07;;;3.10;;
7017;SDS011;3549;42.162;24.726;2023-11-19T05:30:10;5.47;;;3.63;;
7017;SDS011;3549;42.162;24.726;2023-11-19T05:32:36;33.03;;;13.73;;
7017;SDS011;3549;42.162;24.726;2023-11-19T05:35:01;36.73;;;16.27;;
7017;SDS011;3549;42.162;24.726;2023-11-19T05:37:27;18.73;;;10.47;;
7017;SDS011;3549;42.162;24.726;2023-11-19T05:39:53;6.23;;;4.50;;
7017;SDS011;3549;42.162;24.726;2023-11-19T05:42:18;7.73;;;4.40;;
7017;SDS011;3549;42.162;24.726;2023-11-19T05:44:44;5.90;;;4.17;;
7017;SDS011;3549;42.162;24.726;2023-11-19T05:47:09;6.90;;;4.63;;
7017;SDS011;3549;42.162;24.726;2023-11-19T05:49:34;5.53;;;3.90;;
7017;SDS011;3549;42.162;24.726;2023-11-19T05:52:00;6.10;;;4.27;;
7017;SDS011;3549;42.162;24.726;2023-11-19T05:54:28;6.17;;;4.33;;
7017;SDS011;3549;42.162;24.726;2023-11-19T05:56:53;5.10;;;4.07;;
7017;SDS011;3549;42.162;24.726;2023-11-19T05:59:19;5.70;;;3.83;;
7017;SDS011;3549;42.162;24.726;2023-11-19T06:01:44;5.07;;;3.73;;
7017;SDS011;3549;42.162;24.726;2023-11-19T06:04:10;5.17;;;4.07;;
7017;SDS011;3549;42.162;24.726;2023-11-19T06:06:36;5.37;;;3.93;;
7017;SDS011;3549;42.162;24.726;2023-11-19T06:09:02;5.03;;;3.63;;
7017;SDS011;3549;42.162;24.726;2023-11-19T06:11:28;3.77;;;3.27;;
7017;SDS011;3549;42.162;24.726;2023-11-19T06:13:53;4.70;;;3.80;;
7017;SDS011;3549;42.162;24.726;2023-11-19T06:16:19;4.20;;;3.33;;
7017;SDS011;3549;42.162;24.726;2023-11-19T06:18:45;3.43;;;2.87;;
7017;SDS011;3549;42.162;24.726;2023-11-19T06:21:11;6.53;;;3.53;;
7017;SDS011;3549;42.162;24.726;2023-11-19T06:23:37;4.07;;;3.37;;
7017;SDS011;3549;42.162;24.726;2023-11-19T06:26:03;4.93;;;3.77;;
7017;SDS011;3549;42.162;24.726;2023-11-19T06:28:30;6.83;;;3.70;;
7017;SDS011;3549;42.162;24.726;2023-11-19T06:30:56;4.40;;;3.33;;
7017;SDS011;3549;42.162;24.726;2023-11-19T06:33:22;4.30;;;3.57;;
7017;SDS011;3549;42.162;24.726;2023-11-19T06:35:48;5.83;;;4.27;;
7017;SDS011;3549;42.162;24.726;2023-11-19T06:38:14;13.77;;;6.63;;
7017;SDS011;3549;42.162;24.726;2023-11-19T06:40:40;15.20;;;6.50;;
7017;SDS011;3549;42.162;24.726;2023-11-19T06:43:06;19.43;;;7.93;;
7017;SDS011;3549;42.162;24.726;2023-11-19T06:45:34;12.43;;;6.57;;
7017;SDS011;3549;42.162;24.726;2023-11-19T06:48:02;14.43;;;6.93;;
7017;SDS011;3549;42.162;24.726;2023-11-19T06:50:29;10.67;;;6.10;;
7017;SDS011;3549;42.162;24.726;2023-11-19T06:52:54;5.13;;;3.50;;
7017;SDS011;3549;42.162;24.726;2023-11-19T06:55:20;6.87;;;4.70;;
7017;SDS011;3549;42.162;24.726;2023-11-19T06:57:45;6.60;;;3.90;;
7017;SDS011;3549;42.162;24.726;2023-11-19T07:00:11;7.63;;;4.80;;
7017;SDS011;3549;42.162;24.726;2023-11-19T07:02:37;4.57;;;3.50;;
7017;SDS011;3549;42.162;24.726;2023-11-19T07:05:02;4.50;;;3.70;;
7017;SDS011;3549;42.162;24.726;2023-11-19T07:07:30;5.60;;;3.87;;
7017;SDS011;3549;42.162;24.726;2023-11-19T07:09:56;7.93;;;3.93;;
7017;SDS011;3549;42.162;24.726;2023-11-19T07:12:22;5.40;;;4.00;;
7017;SDS011;3549;42.162;24.726;2023-11-19T07:14:47;5.63;;;3.73;;
7017;SDS011;3549;42.162;24.726;2023-11-19T07:17:12;5.60;;;3.13;;
7017;SDS011;3549;42.162;24.726;2023-11-19T07:19:38;7.50;;;3.67;;
7017;SDS011;3549;42.162;24.726;2023-11-19T07:22:04;5.40;;;3.57;;
7017;SDS011;3549;42.162;24.726;2023-11-19T07:24:31;14.87;;;7.50;;
7017;SDS011;3549;42.162;24.726;2023-11-19T07:26:56;11.27;;;5.03;;
7017;SDS011;3549;42.162;24.726;2023-11-19T07:29:22;10.53;;;5.73;;
7017;SDS011;3549;42.162;24.726;2023-11-19T07:31:50;6.33;;;3.77;;
7017;SDS011;3549;42.162;24.726;2023-11-19T07:34:16;4.93;;;3.70;;
7017;SDS011;3549;42.162;24.726;2023-11-19T07:36:41;5.03;;;3.40;;
7017;SDS011;3549;42.162;24.726;2023-11-19T07:39:07;4.93;;;3.43;;
7017;SDS011;3549;42.162;24.726;2023-11-19T07:41:33;4.17;;;3.20;;
7017;SDS011;3549;42.162;24.726;2023-11-19T07:43:59;6.03;;;3.90;;
7017;SDS011;3549;42.162;24.726;2023-11-19T07:46:25;5.53;;;3.47;;
7017;SDS011;3549;42.162;24.726;2023-11-19T07:48:51;11.87;;;5.80;;
7017;SDS011;3549;42.162;24.726;2023-11-19T07:51:17;7.33;;;3.90;;
7017;SDS011;3549;42.162;24.726;2023-11-19T07:53:42;4.93;;;3.67;;
7017;SDS011;3549;42.162;24.726;2023-11-19T07:56:08;6.40;;;3.73;;
7017;SDS011;3549;42.162;24.726;2023-11-19T07:58:33;6.47;;;3.83;;
7017;SDS011;3549;42.162;24.726;2023-11-19T08:00:59;6.70;;;4.50;;
7017;SDS011;3549;42.162;24.726;2023-11-19T08:03:24;6.27;;;3.90;;
7017;SDS011;3549;42.162;24.726;2023-11-19T08:05:50;4.77;;;3.37;;
7017;SDS011;3549;42.162;24.726;2023-11-19T08:08:16;8.63;;;4.50;;
7017;SDS011;3549;42.162;24.726;2023-11-19T08:10:42;6.20;;;4.03;;
7017;SDS011;3549;42.162;24.726;2023-11-19T08:13:09;3.93;;;3.27;;
7017;SDS011;3549;42.162;24.726;2023-11-19T08:15:35;4.53;;;3.10;;
7017;SDS011;3549;42.162;24.726;2023-11-19T08:18:00;5.03;;;3.43;;
7017;SDS011;3549;42.162;24.726;2023-11-19T08:20:26;4.13;;;3.17;;
7017;SDS011;3549;42.162;24.726;2023-11-19T08:22:51;11.33;;;5.33;;
7017;SDS011;3549;42.162;24.726;2023-11-19T08:25:16;4.47;;;3.17;;
7017;SDS011;3549;42.162;24.726;2023-11-19T08:27:42;6.53;;;4.70;;
7017;SDS011;3549;42.162;24.726;2023-11-19T08:30:08;7.73;;;4.90;;
7017;SDS011;3549;42.162;24.726;2023-11-19T08:32:34;8.23;;;4.50;;
7017;SDS011;3549;42.162;24.726;2023-11-19T08:35:00;9.20;;;5.30;;
7017;SDS011;3549;42.162;24.726;2023-11-19T08:37:26;7.40;;;5.20;;
7017;SDS011;3549;42.162;24.726;2023-11-19T08:39:52;8.87;;;5.53;;
7017;SDS011;3549;42.162;24.726;2023-11-19T08:42:17;4.83;;;3.47;;
7017;SDS011;3549;42.162;24.726;2023-11-19T08:44:43;8.57;;;4.90;;
7017;SDS011;3549;42.162;24.726;2023-11-19T08:47:12;6.67;;;3.37;;
7017;SDS011;3549;42.162;24.726;2023-11-19T08:49:38;7.90;;;5.43;;
7017;SDS011;3549;42.162;24.726;2023-11-19T08:52:04;7.63;;;4.73;;
7017;SDS011;3549;42.162;24.726;2023-11-19T08:54:32;7.03;;;5.07;;
7017;SDS011;3549;42.162;24.726;2023-11-19T08:56:58;8.03;;;4.73;;
7017;SDS011;3549;42.162;24.726;2023-11-19T08:59:24;11.97;;;6.70;;
7017;SDS011;3549;42.162;24.726;2023-11-19T09:01:49;9.73;;;6.40;;
7017;SDS011;3549;42.162;24.726;2023-11-19T09:04:15;4.47;;;3.23;;
7017;SDS011;3549;42.162;24.726;2023-11-19T09:06:41;3.60;;;3.23;;
7017;SDS011;3549;42.162;24.726;2023-11-19T09:09:07;7.13;;;4.40;;
7017;SDS011;3549;42.162;24.726;2023-11-19T09:11:33;3.80;;;3.20;;
7017;SDS011;3549;42.162;24.726;2023-11-19T09:13:58;5.00;;;3.87;;
7017;SDS011;3549;42.162;24.726;2023-11-19T09:16:24;6.67;;;3.90;;
7017;SDS011;3549;42.162;24.726;2023-11-19T09:18:50;4.37;;;3.27;;
7017;SDS011;3549;42.162;24.726;2023-11-19T09:21:15;5.17;;;3.50;;
7017;SDS011;3549;42.162;24.726;2023-11-19T09:23:41;6.20;;;4.10;;
7017;SDS011;3549;42.162;24.726;2023-11-19T09:26:07;5.63;;;3.70;;
7017;SDS011;3549;42.162;24.726;2023-11-19T09:28:33;9.60;;;5.23;;
7017;SDS011;3549;42.162;24.726;2023-11-19T09:30:59;5.43;;;4.27;;
7017;SDS011;3549;42.162;24.726;2023-11-19T09:33:24;9.07;;;5.13;;
7017;SDS011;3549;42.162;24.726;2023-11-19T09:35:51;11.27;;;6.17;;
7017;SDS011;3549;42.162;24.726;2023-11-19T09:38:16;5.30;;;4.17;;
7017;SDS011;3549;42.162;24.726;2023-11-19T09:40:42;5.10;;;3.20;;
7017;SDS011;3549;42.162;24.726;2023-11-19T09:43:07;5.33;;;3.80;;
7017;SDS011;3549;42.162;24.726;2023-11-19T09:45:39;4.77;;;3.30;;
7017;SDS011;3549;42.162;24.726;2023-11-19T09:48:16;5.33;;;3.70;;
7017;SDS011;3549;42.162;24.726;2023-11-19T09:50:42;5.27;;;3.43;;
7017;SDS011;3549;42.162;24.726;2023-11-19T09:53:07;5.67;;;4.10;;
7017;SDS011;3549;42.162;24.726;2023-11-19T09:55:33;6.13;;;4.20;;
7017;SDS011;3549;42.162;24.726;2023-11-19T09:57:59;4.47;;;3.70;;
7017;SDS011;3549;42.162;24.726;2023-11-19T10:00:26;8.60;;;5.27;;
7017;SDS011;3549;42.162;24.726;2023-11-19T10:02:52;5.37;;;3.47;;
7017;SDS011;3549;42.162;24.726;2023-11-19T10:05:20;5.73;;;4.47;;
7017;SDS011;3549;42.162;24.726;2023-11-19T10:07:48;5.80;;;3.47;;
7017;SDS011;3549;42.162;24.726;2023-11-19T10:10:14;4.37;;;3.50;;
7017;SDS011;3549;42.162;24.726;2023-11-19T10:12:43;4.43;;;3.60;;
7017;SDS011;3549;42.162;24.726;2023-11-19T10:15:12;4.80;;;3.67;;
7017;SDS011;3549;42.162;24.726;2023-11-19T10:17:44;4.60;;;3.70;;
7017;SDS011;3549;42.162;24.726;2023-11-19T10:20:10;4.30;;;3.57;;
7017;SDS011;3549;42.162;24.726;2023-11-19T10:22:39;9.33;;;6.60;;
7017;SDS011;3549;42.162;24.726;2023-11-19T10:25:26;4.97;;;4.00;;
7017;SDS011;3549;42.162;24.726;2023-11-19T10:27:54;4.13;;;3.73;;
7017;SDS011;3549;42.162;24.726;2023-11-19T10:30:21;3.80;;;3.40;;
7017;SDS011;3549;42.162;24.726;2023-11-19T10:35:29;5.77;;;3.70;;
7017;SDS011;3549;42.162;24.726;2023-11-19T10:37:54;5.23;;;4.27;;
7017;SDS011;3549;42.162;24.726;2023-11-19T10:40:19;5.00;;;3.90;;
7017;SDS011;3549;42.162;24.726;2023-11-19T10:42:45;6.60;;;3.50;;
7017;SDS011;3549;42.162;24.726;2023-11-19T10:45:23;3.83;;;3.37;;
7017;SDS011;3549;42.162;24.726;2023-11-19T10:47:49;6.13;;;4.73;;
7017;SDS011;3549;42.162;24.726;2023-11-19T10:50:16;4.87;;;3.97;;
7017;SDS011;3549;42.162;24.726;2023-11-19T10:52:42;5.20;;;3.97;;
7017;SDS011;3549;42.162;24.726;2023-11-19T10:55:09;8.80;;;6.10;;
7017;SDS011;3549;42.162;24.726;2023-11-19T10:57:39;7.10;;;4.50;;
7017;SDS011;3549;42.162;24.726;2023-11-19T11:00:10;9.83;;;6.40;;
7017;SDS011;3549;42.162;24.726;2023-11-19T11:02:43;7.00;;;5.13;;
7017;SDS011;3549;42.162;24.726;2023-11-19T11:05:15;10.30;;;7.17;;
7017;SDS011;3549;42.162;24.726;2023-11-19T11:07:43;8.90;;;5.13;;
7017;SDS011;3549;42.162;24.726;2023-11-19T11:10:09;6.83;;;5.30;;
7017;SDS011;3549;42.162;24.726;2023-11-19T11:12:37;8.37;;;5.50;;
7017;SDS011;3549;42.162;24.726;2023-11-19T11:15:03;6.13;;;4.80;;
7017;SDS011;3549;42.162;24.726;2023-11-19T11:17:30;7.33;;;4.73;;
7017;SDS011;3549;42.162;24.726;2023-11-19T11:19:58;7.17;;;4.00;;
7017;SDS011;3549;42.162;24.726;2023-11-19T11:22:24;6.47;;;4.67;;
7017;SDS011;3549;42.162;24.726;2023-11-19T11:30:39;11.30;;;7.33;;
7017;SDS011;3549;42.162;24.726;2023-11-19T11:33:32;10.23;;;6.20;;
7017;SDS011;3549;42.162;24.726;2023-11-19T11:36:11;5.60;;;3.87;;
7017;SDS011;3549;42.162;24.726;2023-11-19T11:38:43;6.23;;;4.80;;
7017;SDS011;3549;42.162;24.726;2023-11-19T11:41:15;5.47;;;3.73;;
7017;SDS011;3549;42.162;24.726;2023-11-19T11:43:47;9.03;;;6.37;;
7017;SDS011;3549;42.162;24.726;2023-11-19T11:49:03;6.87;;;5.87;;
7017;SDS011;3549;42.162;24.726;2023-11-19T11:54:30;6.10;;;4.70;;
7017;SDS011;3549;42.162;24.726;2023-11-19T12:02:05;17.90;;;8.90;;
7017;SDS011;3549;42.162;24.726;2023-11-19T12:04:33;38.90;;;13.70;;
7017;SDS011;3549;42.162;24.726;2023-11-19T12:07:07;9.27;;;5.37;;
7017;SDS011;3549;42.162;24.726;2023-11-19T12:09:37;19.10;;;9.67;;
7017;SDS011;3549;42.162;24.726;2023-11-19T12:12:22;14.63;;;6.93;;
7017;SDS011;3549;42.162;24.726;2023-11-19T12:15:07;7.73;;;5.33;;
7017;SDS011;3549;42.162;24.726;2023-11-19T12:17:36;7.17;;;5.30;;
7017;SDS011;3549;42.162;24.726;2023-11-19T12:20:14;9.23;;;6.30;;
7017;SDS011;3549;42.162;24.726;2023-11-19T12:22:40;6.33;;;5.17;;
7017;SDS011;3549;42.162;24.726;2023-11-19T12:25:07;5.20;;;4.40;;
7017;SDS011;3549;42.162;24.726;2023-11-19T12:27:43;5.50;;;4.17;;
7017;SDS011;3549;42.162;24.726;2023-11-19T12:30:10;6.10;;;4.17;;
7017;SDS011;3549;42.162;24.726;2023-11-19T12:32:44;5.20;;;4.57;;
7017;SDS011;3549;42.162;24.726;2023-11-19T12:35:10;6.30;;;4.23;;
7017;SDS011;3549;42.162;24.726;2023-11-19T12:37:54;7.23;;;5.10;;
7017;SDS011;3549;42.162;24.726;2023-11-19T12:40:21;32.13;;;13.83;;
7017;SDS011;3549;42.162;24.726;2023-11-19T12:42:48;9.00;;;6.27;;
7017;SDS011;3549;42.162;24.726;2023-11-19T12:45:14;24.70;;;11.97;;
7017;SDS011;3549;42.162;24.726;2023-11-19T12:47:41;8.97;;;5.97;;
7017;SDS011;3549;42.162;24.726;2023-11-19T12:50:07;12.60;;;8.27;;
7017;SDS011;3549;42.162;24.726;2023-11-19T12:52:36;7.77;;;5.87;;
7017;SDS011;3549;42.162;24.726;2023-11-19T12:55:05;7.97;;;5.23;;
7017;SDS011;3549;42.162;24.726;2023-11-19T12:57:50;16.70;;;10.85;;
7017;SDS011;3549;42.162;24.726;2023-11-19T13:00:19;8.67;;;6.27;;
7017;SDS011;3549;42.162;24.726;2023-11-19T13:02:47;9.60;;;6.13;;
7017;SDS011;3549;42.162;24.726;2023-11-19T13:08:09;10.90;;;5.13;;
7017;SDS011;3549;42.162;24.726;2023-11-19T13:10:50;11.17;;;8.53;;
7017;SDS011;3549;42.162;24.726;2023-11-19T13:13:18;11.83;;;8.20;;
7017;SDS011;3549;42.162;24.726;2023-11-19T13:15:44;13.20;;;8.87;;
7017;SDS011;3549;42.162;24.726;2023-11-19T13:18:10;9.77;;;7.53;;
7017;SDS011;3549;42.162;24.726;2023-11-19T13:20:36;8.03;;;5.70;;
7017;SDS011;3549;42.162;24.726;2023-11-19T13:23:03;9.07;;;6.30;;
7017;SDS011;3549;42.162;24.726;2023-11-19T13:25:30;11.13;;;6.13;;
7017;SDS011;3549;42.162;24.726;2023-11-19T13:27:56;11.13;;;7.03;;
7017;SDS011;3549;42.162;24.726;2023-11-19T13:30:22;11.10;;;7.30;;
7017;SDS011;3549;42.162;24.726;2023-11-19T13:32:50;8.80;;;6.13;;
7017;SDS011;3549;42.162;24.726;2023-11-19T13:35:16;5.37;;;4.33;;
7017;SDS011;3549;42.162;24.726;2023-11-19T13:37:42;6.47;;;4.77;;
7017;SDS011;3549;42.162;24.726;2023-11-19T13:40:09;5.67;;;4.30;;
7017;SDS011;3549;42.162;24.726;2023-11-19T13:42:38;6.33;;;5.17;;
7017;SDS011;3549;42.162;24.726;2023-11-19T13:45:10;7.97;;;6.07;;
7017;SDS011;3549;42.162;24.726;2023-11-19T13:47:41;5.17;;;4.37;;
7017;SDS011;3549;42.162;24.726;2023-11-19T13:50:11;7.77;;;5.27;;
7017;SDS011;3549;42.162;24.726;2023-11-19T13:52:42;6.97;;;5.53;;
7017;SDS011;3549;42.162;24.726;2023-11-19T13:55:11;7.97;;;4.23;;
7017;SDS011;3549;42.162;24.726;2023-11-19T13:57:40;6.57;;;4.53;;
7017;SDS011;3549;42.162;24.726;2023-11-19T14:00:07;6.80;;;4.57;;
7017;SDS011;3549;42.162;24.726;2023-11-19T14:02:44;5.90;;;5.10;;
7017;SDS011;3549;42.162;24.726;2023-11-19T14:05:14;7.57;;;5.57;;
7017;SDS011;3549;42.162;24.726;2023-11-19T14:07:42;7.53;;;4.77;;
7017;SDS011;3549;42.162;24.726;2023-11-19T14:10:08;7.90;;;5.37;;
7017;SDS011;3549;42.162;24.726;2023-11-19T14:12:36;9.13;;;6.60;;
7017;SDS011;3549;42.162;24.726;2023-11-19T14:15:04;7.77;;;5.30;;
7017;SDS011;3549;42.162;24.726;2023-11-19T14:17:34;8.90;;;6.27;;
7017;SDS011;3549;42.162;24.726;2023-11-19T14:20:02;9.33;;;5.77;;
7017;SDS011;3549;42.162;24.726;2023-11-19T14:22:44;7.70;;;5.33;;
7017;SDS011;3549;42.162;24.726;2023-11-19T14:25:13;6.60;;;5.17;;
7017;SDS011;3549;42.162;24.726;2023-11-19T14:27:41;7.10;;;5.10;;
7017;SDS011;3549;42.162;24.726;2023-11-19T14:30:08;6.27;;;4.23;;
7017;SDS011;3549;42.162;24.726;2023-11-19T14:32:36;5.40;;;4.80;;
7017;SDS011;3549;42.162;24.726;2023-11-19T14:35:02;7.37;;;4.33;;
7017;SDS011;3549;42.162;24.726;2023-11-19T14:37:29;6.40;;;4.00;;
7017;SDS011;3549;42.162;24.726;2023-11-19T14:39:56;6.43;;;4.87;;
7017;SDS011;3549;42.162;24.726;2023-11-19T14:42:22;5.40;;;4.07;;
7017;SDS011;3549;42.162;24.726;2023-11-19T14:44:48;7.30;;;5.10;;
7017;SDS011;3549;42.162;24.726;2023-11-19T14:47:14;7.50;;;4.77;;
7017;SDS011;3549;42.162;24.726;2023-11-19T14:49:39;7.63;;;5.17;;
7017;SDS011;3549;42.162;24.726;2023-11-19T14:52:04;6.03;;;4.33;;
7017;SDS011;3549;42.162;24.726;2023-11-19T14:54:30;8.17;;;5.07;;
7017;SDS011;3549;42.162;24.726;2023-11-19T14:56:56;6.60;;;4.70;;
7017;SDS011;3549;42.162;24.726;2023-11-19T14:59:24;7.00;;;4.97;;
7017;SDS011;3549;42.162;24.726;2023-11-19T15:01:49;7.20;;;4.63;;
7017;SDS011;3549;42.162;24.726;2023-11-19T15:04:15;7.60;;;4.93;;
7017;SDS011;3549;42.162;24.726;2023-11-19T15:06:40;8.47;;;5.20;;
7017;SDS011;3549;42.162;24.726;2023-11-19T15:09:06;4.80;;;3.93;;
7017;SDS011;3549;42.162;24.726;2023-11-19T15:11:32;6.07;;;4.53;;
7017;SDS011;3549;42.162;24.726;2023-11-19T15:13:58;9.03;;;5.33;;
7017;SDS011;3549;42.162;24.726;2023-11-19T15:16:25;8.93;;;5.10;;
7017;SDS011;3549;42.162;24.726;2023-11-19T15:18:56;7.27;;;4.67;;
7017;SDS011;3549;42.162;24.726;2023-11-19T15:21:24;10.17;;;5.93;;
7017;SDS011;3549;42.162;24.726;2023-11-19T15:23:54;7.30;;;4.67;;
7017;SDS011;3549;42.162;24.726;2023-11-19T15:26:20;8.97;;;5.47;;